sensor_id;sensor_type;location;lat;lon;timestamp;temperature;humidity
44647;DHT22;56315;-33.902;151.160;2023-05-07T00:00:04;13.20;99.90
44647;DHT22;56315;-33.902;151.160;2023-05-07T00:02:35;13.00;99.90
44647;DHT22;56315;-33.902;151.160;2023-05-07T00:05:04;12.90;99.90
44647;DHT22;56315;-33.902;151.160;2023-05-07T00:07:31;12.80;99.90
44647;DHT22;56315;-33.902;151.160;2023-05-07T00:09:58;12.70;99.90
44647;DHT22;56315;-33.902;151.160;2023-05-07T00:12:26;12.60;99.90
44647;DHT22;56315;-33.902;151.160;2023-05-07T00:14:53;12.50;99.90
44647;DHT22;56315;-33.902;151.160;2023-05-07T00:17:20;12.50;99.90
44647;DHT22;56315;-33.902;151.160;2023-05-07T00:19:47;12.40;99.90
44647;DHT22;56315;-33.902;151.160;2023-05-07T00:22:15;12.40;99.90
44647;DHT22;56315;-33.902;151.160;2023-05-07T00:24:42;12.40;99.90
44647;DHT22;56315;-33.902;151.160;2023-05-07T00:27:09;12.50;99.90
44647;DHT22;56315;-33.902;151.160;2023-05-07T00:29:37;12.50;99.90
44647;DHT22;56315;-33.902;151.160;2023-05-07T00:32:04;12.40;99.90
44647;DHT22;56315;-33.902;151.160;2023-05-07T00:34:31;12.30;99.90
44647;DHT22;56315;-33.902;151.160;2023-05-07T00:36:58;12.30;99.90
44647;DHT22;56315;-33.902;151.160;2023-05-07T00:39:26;12.30;99.90
44647;DHT22;56315;-33.902;151.160;2023-05-07T00:41:53;12.30;99.90
44647;DHT22;56315;-33.902;151.160;2023-05-07T00:44:20;12.20;99.90
44647;DHT22;56315;-33.902;151.160;2023-05-07T00:46:47;12.10;99.90
44647;DHT22;56315;-33.902;151.160;2023-05-07T00:49:16;12.10;99.90
44647;DHT22;56315;-33.902;151.160;2023-05-07T00:51:44;12.20;99.90
44647;DHT22;56315;-33.902;151.160;2023-05-07T00:54:12;12.20;99.90
44647;DHT22;56315;-33.902;151.160;2023-05-07T00:56:40;12.20;99.90
44647;DHT22;56315;-33.902;151.160;2023-05-07T00:59:07;12.30;99.90
44647;DHT22;56315;-33.902;151.160;2023-05-07T01:01:35;12.30;99.90
44647;DHT22;56315;-33.902;151.160;2023-05-07T01:04:03;12.30;99.90
44647;DHT22;56315;-33.902;151.160;2023-05-07T01:06:31;12.30;99.90
44647;DHT22;56315;-33.902;151.160;2023-05-07T01:08:59;12.20;99.90
44647;DHT22;56315;-33.902;151.160;2023-05-07T01:11:27;12.20;99.90
44647;DHT22;56315;-33.902;151.160;2023-05-07T01:13:54;12.20;99.90
44647;DHT22;56315;-33.902;151.160;2023-05-07T01:16:21;12.20;99.90
44647;DHT22;56315;-33.902;151.160;2023-05-07T01:18:49;12.30;99.90
44647;DHT22;56315;-33.902;151.160;2023-05-07T01:21:18;12.30;99.90
44647;DHT22;56315;-33.902;151.160;2023-05-07T01:23:50;12.40;99.90
44647;DHT22;56315;-33.902;151.160;2023-05-07T01:26:17;12.40;99.90
44647;DHT22;56315;-33.902;151.160;2023-05-07T01:28:46;12.50;99.90
44647;DHT22;56315;-33.902;151.160;2023-05-07T01:31:14;12.50;99.90
44647;DHT22;56315;-33.902;151.160;2023-05-07T01:33:42;12.50;99.90
44647;DHT22;56315;-33.902;151.160;2023-05-07T01:36:12;12.50;99.90
44647;DHT22;56315;-33.902;151.160;2023-05-07T01:38:40;12.50;99.90
44647;DHT22;56315;-33.902;151.160;2023-05-07T01:41:08;12.50;99.90
44647;DHT22;56315;-33.902;151.160;2023-05-07T01:43:36;12.50;99.90
44647;DHT22;56315;-33.902;151.160;2023-05-07T01:46:03;12.50;99.90
44647;DHT22;56315;-33.902;151.160;2023-05-07T01:48:31;12.60;99.90
44647;DHT22;56315;-33.902;151.160;2023-05-07T01:51:00;12.90;99.90
44647;DHT22;56315;-33.902;151.160;2023-05-07T01:53:28;13.50;99.90
44647;DHT22;56315;-33.902;151.160;2023-05-07T01:55:55;14.40;99.90
44647;DHT22;56315;-33.902;151.160;2023-05-07T01:58:23;15.60;99.90
44647;DHT22;56315;-33.902;151.160;2023-05-07T02:00:51;17.00;99.90
44647;DHT22;56315;-33.902;151.160;2023-05-07T02:03:19;18.20;99.90
44647;DHT22;56315;-33.902;151.160;2023-05-07T02:05:47;18.90;99.90
44647;DHT22;56315;-33.902;151.160;2023-05-07T02:08:15;18.90;99.90
44647;DHT22;56315;-33.902;151.160;2023-05-07T02:10:42;18.60;99.90
44647;DHT22;56315;-33.902;151.160;2023-05-07T02:13:09;18.60;99.90
44647;DHT22;56315;-33.902;151.160;2023-05-07T02:15:37;19.10;99.90
44647;DHT22;56315;-33.902;151.160;2023-05-07T02:18:07;20.00;99.90
44647;DHT22;56315;-33.902;151.160;2023-05-07T02:20:35;21.10;99.90
44647;DHT22;56315;-33.902;151.160;2023-05-07T02:23:02;22.00;99.90
44647;DHT22;56315;-33.902;151.160;2023-05-07T02:25:29;22.80;99.90
44647;DHT22;56315;-33.902;151.160;2023-05-07T02:27:57;23.30;98.10
44647;DHT22;56315;-33.902;151.160;2023-05-07T02:30:25;23.00;99.40
44647;DHT22;56315;-33.902;151.160;2023-05-07T02:32:52;23.30;99.70
44647;DHT22;56315;-33.902;151.160;2023-05-07T02:35:19;23.60;97.70
44647;DHT22;56315;-33.902;151.160;2023-05-07T02:37:47;23.80;97.00
44647;DHT22;56315;-33.902;151.160;2023-05-07T02:40:14;23.60;96.30
44647;DHT22;56315;-33.902;151.160;2023-05-07T02:42:41;23.60;96.20
44647;DHT22;56315;-33.902;151.160;2023-05-07T02:45:09;24.20;97.00
44647;DHT22;56315;-33.902;151.160;2023-05-07T02:47:36;24.70;94.90
44647;DHT22;56315;-33.902;151.160;2023-05-07T02:50:04;25.00;95.00
44647;DHT22;56315;-33.902;151.160;2023-05-07T02:52:31;24.60;94.30
44647;DHT22;56315;-33.902;151.160;2023-05-07T02:54:59;24.00;94.40
44647;DHT22;56315;-33.902;151.160;2023-05-07T02:57:26;23.00;94.40
44647;DHT22;56315;-33.902;151.160;2023-05-07T02:59:53;22.20;96.50
44647;DHT22;56315;-33.902;151.160;2023-05-07T03:02:20;21.60;97.30
44647;DHT22;56315;-33.902;151.160;2023-05-07T03:04:48;20.80;97.80
44647;DHT22;56315;-33.902;151.160;2023-05-07T03:07:15;20.30;99.10
44647;DHT22;56315;-33.902;151.160;2023-05-07T03:09:43;19.70;99.90
44647;DHT22;56315;-33.902;151.160;2023-05-07T03:12:11;19.00;99.90
44647;DHT22;56315;-33.902;151.160;2023-05-07T03:14:39;18.10;99.90
44647;DHT22;56315;-33.902;151.160;2023-05-07T03:17:06;17.10;99.90
44647;DHT22;56315;-33.902;151.160;2023-05-07T03:19:33;16.30;99.90
44647;DHT22;56315;-33.902;151.160;2023-05-07T03:22:01;15.50;99.90
44647;DHT22;56315;-33.902;151.160;2023-05-07T03:24:28;14.80;99.90
44647;DHT22;56315;-33.902;151.160;2023-05-07T03:26:55;14.30;99.90
44647;DHT22;56315;-33.902;151.160;2023-05-07T03:29:24;14.10;99.90
44647;DHT22;56315;-33.902;151.160;2023-05-07T03:31:51;13.90;99.90
44647;DHT22;56315;-33.902;151.160;2023-05-07T03:34:18;14.00;99.90
44647;DHT22;56315;-33.902;151.160;2023-05-07T03:36:49;14.40;99.90
44647;DHT22;56315;-33.902;151.160;2023-05-07T03:39:16;14.40;99.90
44647;DHT22;56315;-33.902;151.160;2023-05-07T03:41:43;14.50;99.90
44647;DHT22;56315;-33.902;151.160;2023-05-07T03:44:11;14.50;99.90
44647;DHT22;56315;-33.902;151.160;2023-05-07T03:46:38;14.50;99.90
44647;DHT22;56315;-33.902;151.160;2023-05-07T03:49:05;14.70;99.90
44647;DHT22;56315;-33.902;151.160;2023-05-07T03:51:33;14.80;99.90
44647;DHT22;56315;-33.902;151.160;2023-05-07T03:54:00;15.10;99.90
44647;DHT22;56315;-33.902;151.160;2023-05-07T03:56:27;15.30;99.90
44647;DHT22;56315;-33.902;151.160;2023-05-07T03:58:54;15.40;99.90
44647;DHT22;56315;-33.902;151.160;2023-05-07T04:01:22;15.50;99.90
44647;DHT22;56315;-33.902;151.160;2023-05-07T04:03:49;15.60;99.90
44647;DHT22;56315;-33.902;151.160;2023-05-07T04:06:19;15.50;99.90
44647;DHT22;56315;-33.902;151.160;2023-05-07T04:08:47;15.50;99.90
44647;DHT22;56315;-33.902;151.160;2023-05-07T04:11:14;15.50;99.90
44647;DHT22;56315;-33.902;151.160;2023-05-07T04:13:41;15.60;99.90
44647;DHT22;56315;-33.902;151.160;2023-05-07T04:16:08;15.70;99.90
44647;DHT22;56315;-33.902;151.160;2023-05-07T04:18:36;15.70;99.90
44647;DHT22;56315;-33.902;151.160;2023-05-07T04:21:03;15.80;99.90
44647;DHT22;56315;-33.902;151.160;2023-05-07T04:23:31;15.90;99.90
44647;DHT22;56315;-33.902;151.160;2023-05-07T04:25:59;16.00;99.90
44647;DHT22;56315;-33.902;151.160;2023-05-07T04:28:27;16.30;99.90
44647;DHT22;56315;-33.902;151.160;2023-05-07T04:30:54;16.40;99.90
44647;DHT22;56315;-33.902;151.160;2023-05-07T04:33:22;16.50;99.90
44647;DHT22;56315;-33.902;151.160;2023-05-07T04:35:49;16.50;99.70
44647;DHT22;56315;-33.902;151.160;2023-05-07T04:38:16;16.60;99.90
44647;DHT22;56315;-33.902;151.160;2023-05-07T04:40:45;16.80;99.00
44647;DHT22;56315;-33.902;151.160;2023-05-07T04:43:13;17.00;98.70
44647;DHT22;56315;-33.902;151.160;2023-05-07T04:45:40;17.10;96.60
44647;DHT22;56315;-33.902;151.160;2023-05-07T04:48:11;16.90;97.00
44647;DHT22;56315;-33.902;151.160;2023-05-07T04:50:39;16.90;97.10
44647;DHT22;56315;-33.902;151.160;2023-05-07T04:53:06;16.80;97.00
44647;DHT22;56315;-33.902;151.160;2023-05-07T04:55:33;16.70;96.80
44647;DHT22;56315;-33.902;151.160;2023-05-07T04:58:00;16.60;95.80
44647;DHT22;56315;-33.902;151.160;2023-05-07T05:00:28;16.50;96.40
44647;DHT22;56315;-33.902;151.160;2023-05-07T05:02:55;16.40;95.70
44647;DHT22;56315;-33.902;151.160;2023-05-07T05:05:23;16.40;96.10
44647;DHT22;56315;-33.902;151.160;2023-05-07T05:07:50;16.30;97.30
44647;DHT22;56315;-33.902;151.160;2023-05-07T05:10:18;16.20;95.80
44647;DHT22;56315;-33.902;151.160;2023-05-07T05:12:45;16.10;94.50
44647;DHT22;56315;-33.902;151.160;2023-05-07T05:15:13;16.10;95.00
44647;DHT22;56315;-33.902;151.160;2023-05-07T05:17:40;16.10;94.80
44647;DHT22;56315;-33.902;151.160;2023-05-07T05:20:07;15.90;94.60
44647;DHT22;56315;-33.902;151.160;2023-05-07T05:22:37;15.80;95.70
44647;DHT22;56315;-33.902;151.160;2023-05-07T05:25:04;15.60;94.60
44647;DHT22;56315;-33.902;151.160;2023-05-07T05:27:32;15.50;96.30
44647;DHT22;56315;-33.902;151.160;2023-05-07T05:29:59;15.50;95.00
44647;DHT22;56315;-33.902;151.160;2023-05-07T05:32:26;15.40;96.00
44647;DHT22;56315;-33.902;151.160;2023-05-07T05:34:53;15.40;96.30
44647;DHT22;56315;-33.902;151.160;2023-05-07T05:37:21;15.40;95.60
44647;DHT22;56315;-33.902;151.160;2023-05-07T05:39:48;15.50;95.50
44647;DHT22;56315;-33.902;151.160;2023-05-07T05:42:15;15.50;95.30
44647;DHT22;56315;-33.902;151.160;2023-05-07T05:44:42;15.60;95.50
44647;DHT22;56315;-33.902;151.160;2023-05-07T05:47:10;15.70;95.40
44647;DHT22;56315;-33.902;151.160;2023-05-07T05:49:37;15.70;95.20
44647;DHT22;56315;-33.902;151.160;2023-05-07T05:52:04;15.70;95.00
44647;DHT22;56315;-33.902;151.160;2023-05-07T05:54:31;15.70;95.40
44647;DHT22;56315;-33.902;151.160;2023-05-07T05:56:59;15.60;95.80
44647;DHT22;56315;-33.902;151.160;2023-05-07T05:59:26;15.50;95.30
44647;DHT22;56315;-33.902;151.160;2023-05-07T06:01:54;15.50;95.70
44647;DHT22;56315;-33.902;151.160;2023-05-07T06:04:21;15.40;94.90
44647;DHT22;56315;-33.902;151.160;2023-05-07T06:06:48;15.30;95.20
44647;DHT22;56315;-33.902;151.160;2023-05-07T06:09:15;15.20;95.90
44647;DHT22;56315;-33.902;151.160;2023-05-07T06:11:43;15.20;95.90
44647;DHT22;56315;-33.902;151.160;2023-05-07T06:14:10;15.10;95.80
44647;DHT22;56315;-33.902;151.160;2023-05-07T06:16:37;15.10;95.90
44647;DHT22;56315;-33.902;151.160;2023-05-07T06:19:04;15.00;96.80
44647;DHT22;56315;-33.902;151.160;2023-05-07T06:21:32;15.00;96.60
44647;DHT22;56315;-33.902;151.160;2023-05-07T06:23:59;14.90;95.60
44647;DHT22;56315;-33.902;151.160;2023-05-07T06:26:26;14.80;96.00
44647;DHT22;56315;-33.902;151.160;2023-05-07T06:28:53;14.60;96.40
44647;DHT22;56315;-33.902;151.160;2023-05-07T06:31:21;14.50;96.50
44647;DHT22;56315;-33.902;151.160;2023-05-07T06:33:49;14.30;96.50
44647;DHT22;56315;-33.902;151.160;2023-05-07T06:36:16;14.30;96.70
44647;DHT22;56315;-33.902;151.160;2023-05-07T06:38:43;14.10;96.60
44647;DHT22;56315;-33.902;151.160;2023-05-07T06:41:11;14.00;97.00
44647;DHT22;56315;-33.902;151.160;2023-05-07T06:43:38;14.00;97.60
44647;DHT22;56315;-33.902;151.160;2023-05-07T06:46:06;13.90;96.90
44647;DHT22;56315;-33.902;151.160;2023-05-07T06:48:33;13.80;97.30
44647;DHT22;56315;-33.902;151.160;2023-05-07T06:51:00;13.60;98.10
44647;DHT22;56315;-33.902;151.160;2023-05-07T06:53:28;13.60;97.60
44647;DHT22;56315;-33.902;151.160;2023-05-07T06:55:57;13.50;97.60
44647;DHT22;56315;-33.902;151.160;2023-05-07T06:58:24;13.40;98.20
44647;DHT22;56315;-33.902;151.160;2023-05-07T07:00:51;13.30;98.10
44647;DHT22;56315;-33.902;151.160;2023-05-07T07:03:19;13.20;97.40
44647;DHT22;56315;-33.902;151.160;2023-05-07T07:05:46;13.10;98.10
44647;DHT22;56315;-33.902;151.160;2023-05-07T07:08:13;13.10;98.30
44647;DHT22;56315;-33.902;151.160;2023-05-07T07:10:41;13.00;98.20
44647;DHT22;56315;-33.902;151.160;2023-05-07T07:13:08;13.00;98.30
44647;DHT22;56315;-33.902;151.160;2023-05-07T07:15:35;12.90;98.40
44647;DHT22;56315;-33.902;151.160;2023-05-07T07:18:02;12.80;99.00
44647;DHT22;56315;-33.902;151.160;2023-05-07T07:20:30;12.80;99.00
44647;DHT22;56315;-33.902;151.160;2023-05-07T07:22:57;12.70;99.20
44647;DHT22;56315;-33.902;151.160;2023-05-07T07:25:24;12.70;99.70
44647;DHT22;56315;-33.902;151.160;2023-05-07T07:27:52;12.60;99.70
44647;DHT22;56315;-33.902;151.160;2023-05-07T07:30:19;12.60;99.70
44647;DHT22;56315;-33.902;151.160;2023-05-07T07:32:46;12.40;99.90
44647;DHT22;56315;-33.902;151.160;2023-05-07T07:35:13;12.40;99.90
44647;DHT22;56315;-33.902;151.160;2023-05-07T07:37:40;12.30;99.90
44647;DHT22;56315;-33.902;151.160;2023-05-07T07:40:08;12.20;99.90
44647;DHT22;56315;-33.902;151.160;2023-05-07T07:42:36;12.20;99.90
44647;DHT22;56315;-33.902;151.160;2023-05-07T07:45:03;12.10;99.90
44647;DHT22;56315;-33.902;151.160;2023-05-07T07:47:30;12.00;99.90
44647;DHT22;56315;-33.902;151.160;2023-05-07T07:49:58;12.00;99.90
44647;DHT22;56315;-33.902;151.160;2023-05-07T07:52:25;12.00;99.90
44647;DHT22;56315;-33.902;151.160;2023-05-07T07:54:52;11.90;99.90
44647;DHT22;56315;-33.902;151.160;2023-05-07T07:57:19;11.90;99.90
44647;DHT22;56315;-33.902;151.160;2023-05-07T07:59:46;11.90;99.90
44647;DHT22;56315;-33.902;151.160;2023-05-07T08:02:14;11.90;99.90
44647;DHT22;56315;-33.902;151.160;2023-05-07T08:04:41;11.90;99.90
44647;DHT22;56315;-33.902;151.160;2023-05-07T08:07:10;11.80;99.90
44647;DHT22;56315;-33.902;151.160;2023-05-07T08:09:40;11.70;99.90
44647;DHT22;56315;-33.902;151.160;2023-05-07T08:12:08;11.70;99.90
44647;DHT22;56315;-33.902;151.160;2023-05-07T08:14:35;11.70;99.90
44647;DHT22;56315;-33.902;151.160;2023-05-07T08:17:03;11.60;99.90
44647;DHT22;56315;-33.902;151.160;2023-05-07T08:19:30;11.70;99.90
44647;DHT22;56315;-33.902;151.160;2023-05-07T08:21:58;11.60;99.90
44647;DHT22;56315;-33.902;151.160;2023-05-07T08:24:25;11.60;99.90
44647;DHT22;56315;-33.902;151.160;2023-05-07T08:26:52;11.50;99.90
44647;DHT22;56315;-33.902;151.160;2023-05-07T08:29:19;11.40;99.90
44647;DHT22;56315;-33.902;151.160;2023-05-07T08:31:47;11.40;99.90
44647;DHT22;56315;-33.902;151.160;2023-05-07T08:34:14;11.40;99.90
44647;DHT22;56315;-33.902;151.160;2023-05-07T08:36:41;11.30;99.90
44647;DHT22;56315;-33.902;151.160;2023-05-07T08:39:09;11.30;99.90
44647;DHT22;56315;-33.902;151.160;2023-05-07T08:41:36;11.20;99.90
44647;DHT22;56315;-33.902;151.160;2023-05-07T08:44:07;11.20;99.90
44647;DHT22;56315;-33.902;151.160;2023-05-07T08:46:38;11.10;99.90
44647;DHT22;56315;-33.902;151.160;2023-05-07T08:49:07;11.10;99.90
44647;DHT22;56315;-33.902;151.160;2023-05-07T08:51:35;11.10;99.90
44647;DHT22;56315;-33.902;151.160;2023-05-07T08:54:02;11.10;99.90
44647;DHT22;56315;-33.902;151.160;2023-05-07T08:56:31;11.10;99.90
44647;DHT22;56315;-33.902;151.160;2023-05-07T08:58:58;11.10;99.90
44647;DHT22;56315;-33.902;151.160;2023-05-07T09:01:25;11.20;99.90
44647;DHT22;56315;-33.902;151.160;2023-05-07T09:03:53;11.20;99.90
44647;DHT22;56315;-33.902;151.160;2023-05-07T09:06:21;11.30;99.90
44647;DHT22;56315;-33.902;151.160;2023-05-07T09:08:53;11.30;99.90
44647;DHT22;56315;-33.902;151.160;2023-05-07T09:11:21;11.40;99.90
44647;DHT22;56315;-33.902;151.160;2023-05-07T09:13:58;11.50;99.90
44647;DHT22;56315;-33.902;151.160;2023-05-07T09:16:31;11.40;99.90
44647;DHT22;56315;-33.902;151.160;2023-05-07T09:18:59;11.40;99.90
44647;DHT22;56315;-33.902;151.160;2023-05-07T09:21:27;11.40;99.90
44647;DHT22;56315;-33.902;151.160;2023-05-07T09:23:55;11.40;99.90
44647;DHT22;56315;-33.902;151.160;2023-05-07T09:26:23;11.40;99.90
44647;DHT22;56315;-33.902;151.160;2023-05-07T09:28:51;11.40;99.90
44647;DHT22;56315;-33.902;151.160;2023-05-07T09:31:19;11.40;99.90
44647;DHT22;56315;-33.902;151.160;2023-05-07T09:33:46;11.40;99.90
44647;DHT22;56315;-33.902;151.160;2023-05-07T09:36:13;11.40;99.90
44647;DHT22;56315;-33.902;151.160;2023-05-07T09:38:41;11.50;99.90
44647;DHT22;56315;-33.902;151.160;2023-05-07T09:41:11;11.50;99.90
44647;DHT22;56315;-33.902;151.160;2023-05-07T09:43:39;11.50;99.90
44647;DHT22;56315;-33.902;151.160;2023-05-07T09:46:14;11.60;99.90
44647;DHT22;56315;-33.902;151.160;2023-05-07T09:48:44;11.60;99.90
44647;DHT22;56315;-33.902;151.160;2023-05-07T09:51:33;11.50;99.90
44647;DHT22;56315;-33.902;151.160;2023-05-07T09:54:03;11.50;99.90
44647;DHT22;56315;-33.902;151.160;2023-05-07T09:56:31;11.50;99.90
44647;DHT22;56315;-33.902;151.160;2023-05-07T09:59:01;11.50;99.90
44647;DHT22;56315;-33.902;151.160;2023-05-07T10:01:31;11.40;99.90
44647;DHT22;56315;-33.902;151.160;2023-05-07T10:04:01;11.50;99.90
44647;DHT22;56315;-33.902;151.160;2023-05-07T10:06:30;11.40;99.90
44647;DHT22;56315;-33.902;151.160;2023-05-07T10:08:57;11.40;99.90
44647;DHT22;56315;-33.902;151.160;2023-05-07T10:11:27;11.30;99.90
44647;DHT22;56315;-33.902;151.160;2023-05-07T10:13:55;11.30;99.90
44647;DHT22;56315;-33.902;151.160;2023-05-07T10:16:23;11.30;99.90
44647;DHT22;56315;-33.902;151.160;2023-05-07T10:18:51;11.30;99.90
44647;DHT22;56315;-33.902;151.160;2023-05-07T10:21:21;11.20;99.90
44647;DHT22;56315;-33.902;151.160;2023-05-07T10:23:59;11.20;99.90
44647;DHT22;56315;-33.902;151.160;2023-05-07T10:26:28;11.20;99.90
44647;DHT22;56315;-33.902;151.160;2023-05-07T10:34:56;11.20;99.90
44647;DHT22;56315;-33.902;151.160;2023-05-07T10:37:25;11.20;99.90
44647;DHT22;56315;-33.902;151.160;2023-05-07T10:39:53;11.20;99.90
44647;DHT22;56315;-33.902;151.160;2023-05-07T10:42:20;11.20;99.90
44647;DHT22;56315;-33.902;151.160;2023-05-07T10:44:47;11.20;99.90
44647;DHT22;56315;-33.902;151.160;2023-05-07T10:47:16;11.10;99.90
44647;DHT22;56315;-33.902;151.160;2023-05-07T10:52:19;11.00;99.90
44647;DHT22;56315;-33.902;151.160;2023-05-07T10:54:47;11.00;99.90
44647;DHT22;56315;-33.902;151.160;2023-05-07T10:57:35;10.90;99.90
44647;DHT22;56315;-33.902;151.160;2023-05-07T11:00:03;10.90;99.90
44647;DHT22;56315;-33.902;151.160;2023-05-07T11:05:33;10.90;99.90
44647;DHT22;56315;-33.902;151.160;2023-05-07T11:08:01;10.80;99.90
44647;DHT22;56315;-33.902;151.160;2023-05-07T11:10:51;10.70;99.90
44647;DHT22;56315;-33.902;151.160;2023-05-07T11:16:25;10.60;99.90
44647;DHT22;56315;-33.902;151.160;2023-05-07T11:18:57;10.60;99.90
44647;DHT22;56315;-33.902;151.160;2023-05-07T11:21:42;10.60;99.90
44647;DHT22;56315;-33.902;151.160;2023-05-07T11:24:10;10.50;99.90
44647;DHT22;56315;-33.902;151.160;2023-05-07T11:26:48;10.30;99.90
44647;DHT22;56315;-33.902;151.160;2023-05-07T11:29:20;10.20;99.90
44647;DHT22;56315;-33.902;151.160;2023-05-07T11:31:54;10.00;99.90
44647;DHT22;56315;-33.902;151.160;2023-05-07T11:34:23;9.90;99.90
44647;DHT22;56315;-33.902;151.160;2023-05-07T11:36:50;9.80;99.90
44647;DHT22;56315;-33.902;151.160;2023-05-07T11:39:36;9.70;99.90
44647;DHT22;56315;-33.902;151.160;2023-05-07T11:42:03;9.50;99.90
44647;DHT22;56315;-33.902;151.160;2023-05-07T11:44:44;9.50;99.90
44647;DHT22;56315;-33.902;151.160;2023-05-07T11:47:17;9.40;99.90
44647;DHT22;56315;-33.902;151.160;2023-05-07T11:49:54;9.30;99.90
44647;DHT22;56315;-33.902;151.160;2023-05-07T11:52:23;9.20;99.90
44647;DHT22;56315;-33.902;151.160;2023-05-07T11:54:55;9.10;99.90
44647;DHT22;56315;-33.902;151.160;2023-05-07T11:57:23;9.10;99.90
44647;DHT22;56315;-33.902;151.160;2023-05-07T11:59:58;9.00;99.90
44647;DHT22;56315;-33.902;151.160;2023-05-07T12:02:26;8.90;99.90
44647;DHT22;56315;-33.902;151.160;2023-05-07T12:04:54;8.70;99.90
44647;DHT22;56315;-33.902;151.160;2023-05-07T12:07:23;8.60;99.90
44647;DHT22;56315;-33.902;151.160;2023-05-07T12:09:50;8.40;99.90
44647;DHT22;56315;-33.902;151.160;2023-05-07T12:12:18;8.10;99.90
44647;DHT22;56315;-33.902;151.160;2023-05-07T12:14:46;8.00;99.90
44647;DHT22;56315;-33.902;151.160;2023-05-07T12:17:14;7.90;99.90
44647;DHT22;56315;-33.902;151.160;2023-05-07T12:19:44;7.90;99.90
44647;DHT22;56315;-33.902;151.160;2023-05-07T12:22:12;7.90;99.90
44647;DHT22;56315;-33.902;151.160;2023-05-07T12:24:56;7.90;99.90
44647;DHT22;56315;-33.902;151.160;2023-05-07T12:27:23;7.90;99.90
44647;DHT22;56315;-33.902;151.160;2023-05-07T12:29:51;7.90;99.90
44647;DHT22;56315;-33.902;151.160;2023-05-07T12:32:20;7.90;99.90
44647;DHT22;56315;-33.902;151.160;2023-05-07T12:34:51;7.90;99.90
44647;DHT22;56315;-33.902;151.160;2023-05-07T12:37:24;8.00;99.90
44647;DHT22;56315;-33.902;151.160;2023-05-07T12:40:08;8.00;99.90
44647;DHT22;56315;-33.902;151.160;2023-05-07T12:42:37;7.90;99.90
44647;DHT22;56315;-33.902;151.160;2023-05-07T12:45:12;7.90;99.90
44647;DHT22;56315;-33.902;151.160;2023-05-07T12:47:43;8.00;99.90
44647;DHT22;56315;-33.902;151.160;2023-05-07T12:50:10;7.90;99.90
44647;DHT22;56315;-33.902;151.160;2023-05-07T12:52:38;7.90;99.90
44647;DHT22;56315;-33.902;151.160;2023-05-07T12:55:09;7.90;99.90
44647;DHT22;56315;-33.902;151.160;2023-05-07T12:57:40;7.90;99.90
44647;DHT22;56315;-33.902;151.160;2023-05-07T13:00:08;7.90;99.90
44647;DHT22;56315;-33.902;151.160;2023-05-07T13:02:40;8.00;99.90
44647;DHT22;56315;-33.902;151.160;2023-05-07T13:05:08;8.00;99.90
44647;DHT22;56315;-33.902;151.160;2023-05-07T13:07:36;8.00;99.90
44647;DHT22;56315;-33.902;151.160;2023-05-07T13:10:04;8.00;99.90
44647;DHT22;56315;-33.902;151.160;2023-05-07T13:12:32;7.90;99.90
44647;DHT22;56315;-33.902;151.160;2023-05-07T13:14:59;7.90;99.90
44647;DHT22;56315;-33.902;151.160;2023-05-07T13:17:26;7.80;99.90
44647;DHT22;56315;-33.902;151.160;2023-05-07T13:19:53;7.90;99.90
44647;DHT22;56315;-33.902;151.160;2023-05-07T13:22:20;7.80;99.90
44647;DHT22;56315;-33.902;151.160;2023-05-07T13:24:48;7.90;99.90
44647;DHT22;56315;-33.902;151.160;2023-05-07T13:27:15;7.90;99.90
44647;DHT22;56315;-33.902;151.160;2023-05-07T13:29:42;7.90;99.90
44647;DHT22;56315;-33.902;151.160;2023-05-07T13:32:09;7.90;99.90
44647;DHT22;56315;-33.902;151.160;2023-05-07T13:34:37;7.90;99.90
44647;DHT22;56315;-33.902;151.160;2023-05-07T13:37:04;8.00;99.90
44647;DHT22;56315;-33.902;151.160;2023-05-07T13:39:31;8.00;99.90
44647;DHT22;56315;-33.902;151.160;2023-05-07T13:41:58;8.10;99.90
44647;DHT22;56315;-33.902;151.160;2023-05-07T13:44:26;8.10;99.90
44647;DHT22;56315;-33.902;151.160;2023-05-07T13:46:53;8.10;99.90
44647;DHT22;56315;-33.902;151.160;2023-05-07T13:49:20;8.20;99.90
44647;DHT22;56315;-33.902;151.160;2023-05-07T13:51:48;8.20;99.90
44647;DHT22;56315;-33.902;151.160;2023-05-07T13:54:15;8.20;99.90
44647;DHT22;56315;-33.902;151.160;2023-05-07T13:56:42;8.30;99.90
44647;DHT22;56315;-33.902;151.160;2023-05-07T13:59:10;8.30;99.90
44647;DHT22;56315;-33.902;151.160;2023-05-07T14:01:37;8.30;99.90
44647;DHT22;56315;-33.902;151.160;2023-05-07T14:04:04;8.40;99.90
44647;DHT22;56315;-33.902;151.160;2023-05-07T14:06:31;8.40;99.90
44647;DHT22;56315;-33.902;151.160;2023-05-07T14:08:59;8.40;99.90
44647;DHT22;56315;-33.902;151.160;2023-05-07T14:11:26;8.50;99.90
44647;DHT22;56315;-33.902;151.160;2023-05-07T14:13:53;8.60;99.90
44647;DHT22;56315;-33.902;151.160;2023-05-07T14:16:23;8.60;99.90
44647;DHT22;56315;-33.902;151.160;2023-05-07T14:18:50;8.60;99.90
44647;DHT22;56315;-33.902;151.160;2023-05-07T14:21:17;8.70;99.90
44647;DHT22;56315;-33.902;151.160;2023-05-07T14:23:44;8.70;99.90
44647;DHT22;56315;-33.902;151.160;2023-05-07T14:26:12;8.70;99.90
44647;DHT22;56315;-33.902;151.160;2023-05-07T14:28:39;8.70;99.90
44647;DHT22;56315;-33.902;151.160;2023-05-07T14:31:07;8.80;99.90
44647;DHT22;56315;-33.902;151.160;2023-05-07T14:33:34;8.80;99.90
44647;DHT22;56315;-33.902;151.160;2023-05-07T14:36:01;8.80;99.90
44647;DHT22;56315;-33.902;151.160;2023-05-07T14:38:30;8.90;99.90
44647;DHT22;56315;-33.902;151.160;2023-05-07T14:40:59;8.90;99.90
44647;DHT22;56315;-33.902;151.160;2023-05-07T14:43:27;8.90;99.90
44647;DHT22;56315;-33.902;151.160;2023-05-07T14:45:54;8.90;99.90
44647;DHT22;56315;-33.902;151.160;2023-05-07T14:48:21;8.90;99.90
44647;DHT22;56315;-33.902;151.160;2023-05-07T14:58:30;8.90;99.90
44647;DHT22;56315;-33.902;151.160;2023-05-07T15:00:58;9.00;99.90
44647;DHT22;56315;-33.902;151.160;2023-05-07T15:03:25;9.00;99.90
44647;DHT22;56315;-33.902;151.160;2023-05-07T15:05:53;9.10;99.90
44647;DHT22;56315;-33.902;151.160;2023-05-07T15:08:20;9.10;99.90
44647;DHT22;56315;-33.902;151.160;2023-05-07T15:10:47;9.20;99.90
44647;DHT22;56315;-33.902;151.160;2023-05-07T15:13:14;9.20;99.90
44647;DHT22;56315;-33.902;151.160;2023-05-07T15:15:42;9.20;99.90
44647;DHT22;56315;-33.902;151.160;2023-05-07T15:18:10;9.30;99.90